Time;durP1;ratioP1;P1;durP2;ratioP2;P2;SDS_P1;SDS_P2;PMS_P1;PMS_P2;Temp;Humidity;BMP_temperature;BMP_pressure;BME280_temperature;BME280_humidity;BME280_pressure;Samples;Min_cycle;Max_cycle;Signal;HPM_P1;HPM_P2
2023/05/26 00:00:05;;;;;;;10.40;4.57;;;;;;;12.26;100.00;92960.19;4935340;29;20052;-76
2023/05/26 00:02:30;;;;;;;7.57;3.45;;;;;;;12.25;100.00;92966.53;4924492;29;20414;-75
2023/05/26 00:05:01;;;;;;;8.23;3.47;;;;;;;12.24;100.00;92970.97;4915166;29;20127;-77
2023/05/26 00:07:27;;;;;;;8.82;3.50;;;;;;;12.22;100.00;92965.22;4935173;29;20115;-76
2023/05/26 00:09:52;;;;;;;6.65;3.65;;;;;;;12.21;100.00;92968.91;4935501;29;20063;-76
2023/05/26 00:12:18;;;;;;;5.32;3.25;;;;;;;12.19;100.00;92959.78;4934438;29;20028;-76
2023/05/26 00:14:43;;;;;;;8.45;3.72;;;;;;;12.18;100.00;92969.50;4935350;29;20044;-76
2023/05/26 00:17:09;;;;;;;6.30;3.92;;;;;;;12.17;100.00;92964.53;4935582;29;20050;-76
2023/05/26 00:19:37;;;;;;;9.20;3.70;;;;;;;12.15;100.00;92964.78;4935199;29;20126;-76
2023/05/26 00:22:04;;;;;;;5.70;3.70;;;;;;;12.11;100.00;92963.78;4935440;29;20047;-75
2023/05/26 00:24:30;;;;;;;8.88;3.90;;;;;;;12.12;100.00;92967.22;4934384;29;20040;-76
2023/05/26 00:26:55;;;;;;;11.20;4.22;;;;;;;12.12;100.00;92962.75;4934978;29;20040;-75
2023/05/26 00:29:21;;;;;;;9.82;3.95;;;;;;;12.13;100.00;92961.66;4935133;29;20074;-76
2023/05/26 00:31:46;;;;;;;7.75;3.70;;;;;;;12.11;100.00;92955.16;4935077;29;20036;-76
2023/05/26 00:34:12;;;;;;;6.70;3.78;;;;;;;12.12;100.00;92961.97;4925799;29;20448;-75
2023/05/26 00:36:38;;;;;;;9.88;4.38;;;;;;;12.09;100.00;92947.56;4930333;29;20410;-76
2023/05/26 00:39:03;;;;;;;7.10;3.95;;;;;;;12.08;100.00;92953.88;4938046;29;20159;-76
2023/05/26 00:41:29;;;;;;;6.30;3.92;;;;;;;12.07;100.00;92953.09;4924278;29;20044;-76
2023/05/26 00:43:55;;;;;;;6.43;4.10;;;;;;;12.06;100.00;92951.53;4917863;29;20042;-76
2023/05/26 00:46:21;;;;;;;5.97;4.03;;;;;;;12.04;100.00;92948.41;4932552;29;20035;-76
2023/05/26 00:48:46;;;;;;;10.23;3.72;;;;;;;12.02;100.00;92947.94;4950119;29;20051;-75
2023/05/26 00:51:13;;;;;;;10.52;4.25;;;;;;;11.99;100.00;92945.84;4933570;29;20106;-76
2023/05/26 00:53:43;;;;;;;11.32;4.00;;;;;;;11.97;100.00;92944.59;4932028;29;20064;-75
2023/05/26 00:56:16;;;;;;;9.55;3.92;;;;;;;11.96;100.00;92940.41;4927891;29;20447;-76
2023/05/26 00:58:45;;;;;;;6.75;4.10;;;;;;;11.95;100.00;92944.09;4915634;29;20032;-76
2023/05/26 01:01:14;;;;;;;6.32;3.58;;;;;;;11.93;100.00;92936.47;4914393;29;20578;-77
2023/05/26 01:03:42;;;;;;;6.10;3.35;;;;;;;11.93;100.00;92941.72;4931456;29;20044;-76
2023/05/26 01:06:08;;;;;;;9.00;3.90;;;;;;;11.94;100.00;92934.66;4913608;29;20051;-76
2023/05/26 01:08:33;;;;;;;7.55;3.92;;;;;;;11.92;100.00;92939.41;4916891;29;20032;-76
2023/05/26 01:11:06;;;;;;;9.30;3.75;;;;;;;11.92;100.00;92936.78;4933770;29;20036;-76
2023/05/26 01:13:51;;;;;;;6.45;3.42;;;;;;;11.90;100.00;92933.66;4934424;29;20039;-76
2023/05/26 01:16:21;;;;;;;6.13;3.60;;;;;;;11.91;100.00;92937.84;4933792;29;20114;-76
2023/05/26 01:19:34;;;;;;;6.47;3.42;;;;;;;11.91;100.00;92929.97;4934075;29;20094;-76
2023/05/26 01:22:18;;;;;;;5.80;3.00;;;;;;;11.90;100.00;92926.56;4902535;29;20102;-76
2023/05/26 01:25:10;;;;;;;9.38;3.67;;;;;;;12.08;100.00;92927.63;4930860;29;20028;-76
2023/05/26 01:27:52;;;;;;;9.67;3.90;;;;;;;12.08;100.00;92927.63;4933935;29;20047;-76
2023/05/26 01:30:20;;;;;;;6.60;3.65;;;;;;;12.05;100.00;92929.00;4932772;29;20283;-76
2023/05/26 01:32:49;;;;;;;8.48;3.80;;;;;;;12.03;100.00;92919.84;4934211;29;20523;-76
2023/05/26 01:35:15;;;;;;;8.57;3.80;;;;;;;12.01;100.00;92916.72;4932768;29;20101;-76
2023/05/26 01:37:42;;;;;;;5.97;3.40;;;;;;;11.98;100.00;92915.44;4932531;29;20055;-76
2023/05/26 01:40:11;;;;;;;6.20;3.50;;;;;;;11.97;100.00;92921.75;4933921;29;20438;-76
2023/05/26 01:42:41;;;;;;;8.18;3.63;;;;;;;11.95;100.00;92918.63;4917373;29;20036;-76
2023/05/26 01:45:15;;;;;;;5.82;3.60;;;;;;;11.95;100.00;92917.84;4914702;29;20115;-75
2023/05/26 01:47:44;;;;;;;7.35;3.30;;;;;;;11.93;100.00;92915.50;4946997;29;20071;-76
2023/05/26 01:50:12;;;;;;;11.95;3.63;;;;;;;11.92;100.00;92913.19;4945456;29;20147;-75
2023/05/26 01:52:42;;;;;;;9.75;3.67;;;;;;;11.88;100.00;92920.81;4932751;29;20426;-76
2023/05/26 01:55:13;;;;;;;7.22;3.35;;;;;;;11.86;100.00;92915.03;4913866;29;20049;-76
2023/05/26 01:57:41;;;;;;;8.57;3.47;;;;;;;11.81;100.00;92913.28;4914080;29;20036;-76
2023/05/26 02:00:09;;;;;;;7.10;3.42;;;;;;;11.77;100.00;92914.91;4913221;29;20052;-76
2023/05/26 02:02:40;;;;;;;7.90;3.00;;;;;;;11.73;100.00;92906.06;4931093;29;20048;-76
2023/05/26 02:05:06;;;;;;;6.47;3.50;;;;;;;11.72;100.00;92916.81;4932508;29;20409;-76
2023/05/26 02:07:34;;;;;;;9.43;3.42;;;;;;;11.68;100.00;92913.97;4932657;29;20048;-76
2023/05/26 02:10:01;;;;;;;8.07;3.42;;;;;;;11.65;100.00;92917.94;4932324;29;20040;-75
2023/05/26 02:12:27;;;;;;;9.45;3.45;;;;;;;11.63;100.00;92912.19;4933892;29;20047;-76
2023/05/26 02:14:52;;;;;;;7.72;3.42;;;;;;;11.61;100.00;92914.31;4916297;29;20071;-76
2023/05/26 02:17:18;;;;;;;6.50;3.35;;;;;;;11.62;100.00;92920.34;4933438;29;20107;-76
2023/05/26 02:19:44;;;;;;;10.40;3.47;;;;;;;11.60;100.00;92912.75;4931591;29;20130;-76
2023/05/26 02:22:12;;;;;;;7.15;3.60;;;;;;;11.63;100.00;92914.03;4915485;29;20538;-75
2023/05/26 02:24:39;;;;;;;7.88;3.47;;;;;;;11.62;100.00;92904.63;4929404;29;20036;-75
2023/05/26 02:27:05;;;;;;;11.82;3.65;;;;;;;11.59;100.00;92900.69;4936833;29;20040;-75
2023/05/26 02:29:30;;;;;;;11.68;3.40;;;;;;;11.55;100.00;92904.97;4937213;29;20110;-75
2023/05/26 02:31:56;;;;;;;6.45;3.40;;;;;;;11.51;100.00;92909.22;4936245;29;20078;-75
2023/05/26 02:34:22;;;;;;;15.13;4.30;;;;;;;11.48;100.00;92903.72;4936038;29;20040;-75
2023/05/26 02:36:48;;;;;;;8.68;3.60;;;;;;;11.44;100.00;92893.81;4937310;29;20043;-75
2023/05/26 02:39:14;;;;;;;9.32;3.65;;;;;;;11.42;100.00;92895.16;4936911;29;20434;-75
2023/05/26 02:41:39;;;;;;;7.97;3.95;;;;;;;11.41;100.00;92899.59;4935838;29;20066;-75
2023/05/26 02:44:05;;;;;;;6.00;3.30;;;;;;;11.40;100.00;92905.91;4937066;29;20437;-75
2023/05/26 02:46:31;;;;;;;7.65;3.80;;;;;;;11.38;100.00;92900.19;4951615;29;20405;-75
2023/05/26 02:48:57;;;;;;;8.25;3.70;;;;;;;11.37;100.00;92898.63;4935556;29;20457;-75
2023/05/26 02:51:22;;;;;;;8.65;3.47;;;;;;;11.35;100.00;92897.31;4951749;29;20123;-76
2023/05/26 02:53:48;;;;;;;13.07;4.20;;;;;;;11.32;100.00;92901.28;4951454;28;20083;-76
2023/05/26 02:56:14;;;;;;;6.07;3.28;;;;;;;11.34;100.00;92906.25;4951546;29;20032;-76
2023/05/26 02:58:39;;;;;;;6.05;3.45;;;;;;;11.32;100.00;92900.50;4951090;29;20568;-76
2023/05/26 03:01:05;;;;;;;8.02;3.60;;;;;;;11.30;100.00;92898.16;4935135;29;20164;-76
2023/05/26 03:03:32;;;;;;;6.57;3.67;;;;;;;11.29;100.00;92901.84;4935395;29;20072;-76
2023/05/26 03:05:58;;;;;;;7.55;3.55;;;;;;;11.29;100.00;92907.09;4935540;29;20059;-76
2023/05/26 03:08:24;;;;;;;9.15;3.90;;;;;;;11.28;100.00;92902.94;4935503;29;20130;-76
2023/05/26 03:10:50;;;;;;;9.50;4.05;;;;;;;11.29;100.00;92906.31;4934826;29;20180;-76
2023/05/26 03:13:16;;;;;;;7.68;4.20;;;;;;;11.29;100.00;92901.09;4935271;29;20035;-76
2023/05/26 03:15:47;;;;;;;9.38;4.35;;;;;;;11.29;100.00;92909.72;4935408;29;20127;-76
2023/05/26 03:18:15;;;;;;;9.90;3.78;;;;;;;11.27;100.00;92909.22;4917417;29;20196;-76
2023/05/26 03:20:40;;;;;;;9.10;3.53;;;;;;;11.26;100.00;92902.44;4916115;29;20115;-76
2023/05/26 03:23:06;;;;;;;9.60;4.03;;;;;;;11.27;100.00;92906.59;4916358;29;20068;-76
2023/05/26 03:25:32;;;;;;;7.07;3.92;;;;;;;11.26;100.00;92907.66;4935008;29;20048;-76
2023/05/26 03:27:57;;;;;;;7.88;3.90;;;;;;;11.23;100.00;92906.34;4951688;29;20051;-76
2023/05/26 03:30:23;;;;;;;8.23;4.18;;;;;;;11.20;100.00;92895.69;4950768;29;20070;-76
2023/05/26 03:32:48;;;;;;;9.85;3.88;;;;;;;11.17;100.00;92904.09;4936550;29;20028;-76
2023/05/26 03:35:14;;;;;;;6.20;3.25;;;;;;;11.16;100.00;92905.16;4936083;29;20067;-76
2023/05/26 03:37:40;;;;;;;10.45;3.92;;;;;;;11.14;100.00;92904.63;4935043;29;20043;-76
2023/05/26 03:40:08;;;;;;;11.55;3.40;;;;;;;11.13;100.00;92903.09;4934867;29;20032;-76
2023/05/26 03:42:35;;;;;;;13.57;3.40;;;;;;;11.11;100.00;92903.38;4950568;29;20502;-76
2023/05/26 03:45:01;;;;;;;7.00;3.58;;;;;;;11.10;100.00;92896.56;4934552;29;20050;-76
2023/05/26 03:47:26;;;;;;;7.97;3.78;;;;;;;11.11;100.00;92894.72;4934821;29;20039;-76
2023/05/26 03:49:52;;;;;;;7.80;3.28;;;;;;;11.11;100.00;92892.88;4950990;29;20029;-76
2023/05/26 03:52:18;;;;;;;7.90;3.90;;;;;;;11.13;100.00;92897.84;4934423;29;20056;-76
2023/05/26 03:54:43;;;;;;;9.27;4.53;;;;;;;11.12;100.00;92901.50;4935918;29;20838;-76
2023/05/26 03:57:09;;;;;;;9.52;3.65;;;;;;;11.12;100.00;92897.06;4935816;29;20050;-76
2023/05/26 03:59:35;;;;;;;10.90;4.10;;;;;;;11.11;100.00;92905.97;4918564;29;20043;-76
2023/05/26 04:02:02;;;;;;;9.98;3.50;;;;;;;11.11;100.00;92898.13;4934621;29;20102;-76
2023/05/26 04:04:28;;;;;;;9.10;3.65;;;;;;;11.11;100.00;92899.97;4949986;29;20039;-75
2023/05/26 04:06:54;;;;;;;11.18;3.88;;;;;;;11.12;100.00;92901.50;4935770;29;20494;-76
2023/05/26 04:09:19;;;;;;;8.82;3.35;;;;;;;11.13;100.00;92903.09;4935909;29;20028;-76
2023/05/26 04:11:46;;;;;;;6.65;3.50;;;;;;;11.14;100.00;92909.88;4935594;29;20039;-76
2023/05/26 04:14:12;;;;;;;9.02;3.30;;;;;;;11.18;100.00;92908.28;4949722;28;20036;-76
2023/05/26 04:16:38;;;;;;;6.63;3.45;;;;;;;11.21;100.00;92911.13;4934882;29;20070;-76
2023/05/26 04:19:03;;;;;;;9.70;4.03;;;;;;;11.25;100.00;92906.88;4935416;29;20031;-76
2023/05/26 04:21:30;;;;;;;5.03;3.25;;;;;;;11.29;100.00;92907.09;4935094;29;20048;-76
2023/05/26 04:23:57;;;;;;;11.52;3.72;;;;;;;11.34;100.00;92908.88;4949655;28;20036;-76
2023/05/26 04:26:24;;;;;;;8.38;4.10;;;;;;;11.38;100.00;92913.28;4933757;29;20755;-76
2023/05/26 04:29:10;;;;;;;9.38;4.00;;;;;;;11.42;100.00;92911.66;4934321;29;20087;-76
2023/05/26 04:31:56;;;;;;;9.68;3.53;;;;;;;11.49;100.00;92907.94;4924533;29;20079;-76
2023/05/26 04:34:44;;;;;;;8.15;3.53;;;;;;;11.54;100.00;92915.72;4926028;29;20458;-76
2023/05/26 04:37:14;;;;;;;7.43;3.70;;;;;;;11.57;100.00;92918.56;4916136;29;20059;-76
2023/05/26 04:39:41;;;;;;;10.05;3.75;;;;;;;11.61;100.00;92913.53;4915004;29;20684;-76
2023/05/26 04:42:06;;;;;;;8.77;3.58;;;;;;;11.66;100.00;92913.47;4914690;29;20028;-76
2023/05/26 04:44:32;;;;;;;10.57;4.18;;;;;;;11.73;100.00;92913.91;4915248;29;20036;-76
2023/05/26 04:47:00;;;;;;;6.65;4.07;;;;;;;11.82;100.00;92912.22;4913857;29;20087;-76
2023/05/26 04:49:29;;;;;;;7.88;4.03;;;;;;;11.88;100.00;92908.47;4931882;29;20039;-76
2023/05/26 04:51:58;;;;;;;6.65;3.55;;;;;;;11.96;100.00;92919.41;4934494;29;20490;-76
2023/05/26 04:54:24;;;;;;;9.95;3.95;;;;;;;12.01;100.00;92911.47;4934383;29;20054;-76
2023/05/26 04:56:50;;;;;;;6.80;3.80;;;;;;;12.08;100.00;92919.75;4933342;29;20044;-76
2023/05/26 04:59:23;;;;;;;7.55;3.90;;;;;;;12.15;100.00;92916.78;4915855;29;20394;-78
2023/05/26 05:01:49;;;;;;;;;;;;;;;12.22;100.00;92923.22;4931757;29;20035;-76
2023/05/26 05:04:24;;;;;;;7.55;3.80;;;;;;;12.33;100.00;92923.09;4931877;29;19929;-76
2023/05/26 05:06:55;;;;;;;14.25;4.07;;;;;;;12.42;100.00;92929.25;4933409;29;20130;-78
2023/05/26 05:09:21;;;;;;;10.13;3.90;;;;;;;12.49;100.00;92929.66;4931897;29;20039;-79
2023/05/26 05:11:47;;;;;;;5.28;3.40;;;;;;;12.60;100.00;92932.91;4933761;29;20035;-79
2023/05/26 05:14:14;;;;;;;6.38;3.53;;;;;;;12.67;100.00;92936.72;4948207;28;20040;-79
2023/05/26 05:16:41;;;;;;;6.30;3.67;;;;;;;12.78;100.00;92939.19;4915846;29;20122;-79
2023/05/26 05:19:07;;;;;;;7.38;3.45;;;;;;;12.93;100.00;92935.53;4932406;29;20231;-79
2023/05/26 05:21:39;;;;;;;6.97;3.83;;;;;;;13.09;100.00;92934.97;4932810;29;20119;-78
2023/05/26 05:24:05;;;;;;;8.02;3.92;;;;;;;13.22;100.00;92937.91;4933589;29;20703;-78
2023/05/26 05:26:30;;;;;;;9.52;4.10;;;;;;;13.31;100.00;92936.97;4925581;29;20129;-78
2023/05/26 05:28:56;;;;;;;7.72;3.83;;;;;;;13.42;100.00;92942.81;4948923;28;20071;-78
2023/05/26 05:31:45;;;;;;;6.90;3.28;;;;;;;13.55;100.00;92935.97;4925917;29;20063;-78
2023/05/26 05:34:10;;;;;;;8.90;3.55;;;;;;;13.68;100.00;92934.44;4928999;29;20031;-78
2023/05/26 05:36:37;;;;;;;5.50;3.60;;;;;;;13.81;100.00;92938.91;4934027;29;20028;-78
2023/05/26 05:39:03;;;;;;;9.65;3.85;;;;;;;14.02;100.00;92943.72;4933143;29;20475;-77
2023/05/26 05:41:28;;;;;;;10.13;3.55;;;;;;;14.15;100.00;92943.69;4934273;29;20039;-79
2023/05/26 05:43:56;;;;;;;10.52;3.92;;;;;;;14.29;100.00;92941.03;4934323;29;20050;-79
2023/05/26 05:46:24;;;;;;;6.38;3.88;;;;;;;14.46;100.00;92947.53;4933800;29;20495;-78
2023/05/26 05:48:56;;;;;;;9.23;3.85;;;;;;;15.00;100.00;92940.47;4933289;29;20039;-78
2023/05/26 05:51:35;;;;;;;7.88;3.65;;;;;;;15.84;100.00;92941.44;4935186;29;20043;-79
2023/05/26 05:54:01;;;;;;;6.07;3.55;;;;;;;16.64;100.00;92946.50;4936063;29;20646;-79
2023/05/26 05:56:28;;;;;;;6.68;3.15;;;;;;;17.40;100.00;92939.81;4926778;29;20038;-80
2023/05/26 05:58:54;;;;;;;9.77;3.50;;;;;;;18.10;100.00;92933.13;4933022;29;20036;-79
2023/05/26 06:01:20;;;;;;;6.70;3.03;;;;;;;18.80;100.00;92945.09;4922488;29;20040;-79
2023/05/26 06:03:46;;;;;;;10.57;3.25;;;;;;;19.37;100.00;92947.03;4955368;28;20071;-79
2023/05/26 06:06:12;;;;;;;11.27;3.60;;;;;;;19.74;100.00;92947.84;4953580;29;20383;-79
2023/05/26 06:08:38;;;;;;;9.88;3.17;;;;;;;19.76;100.00;92943.00;4938740;29;20059;-79
2023/05/26 06:11:05;;;;;;;11.52;4.15;;;;;;;19.99;100.00;92945.19;4937167;29;20159;-79
2023/05/26 06:13:34;;;;;;;10.20;3.53;;;;;;;20.32;100.00;92942.41;4938496;29;20481;-79
2023/05/26 06:16:00;;;;;;;15.20;3.45;;;;;;;20.55;100.00;92953.31;4938810;29;20046;-79
2023/05/26 06:18:26;;;;;;;9.55;3.67;;;;;;;20.10;100.00;92948.97;4938333;29;20074;-79
2023/05/26 06:20:51;;;;;;;15.55;4.22;;;;;;;20.51;99.30;92944.47;4938189;29;20098;-79
2023/05/26 06:23:17;;;;;;;13.07;3.40;;;;;;;20.58;98.18;92959.91;4938124;29;20036;-79
2023/05/26 06:25:43;;;;;;;8.88;4.00;;;;;;;21.08;97.76;92950.59;4938149;29;20130;-79
2023/05/26 06:28:11;;;;;;;9.60;3.38;;;;;;;21.13;95.33;92958.34;4938632;29;20527;-79
2023/05/26 06:30:38;;;;;;;9.48;3.35;;;;;;;20.55;97.49;92957.84;4938935;29;20035;-79
2023/05/26 06:33:17;;;;;;;6.57;3.10;;;;;;;20.32;99.38;92961.00;4930733;29;20071;-80
2023/05/26 06:35:43;;;;;;;6.10;2.65;;;;;;;20.01;100.00;92958.16;4953808;29;20051;-79
2023/05/26 06:38:08;;;;;;;8.73;3.10;;;;;;;19.85;100.00;92960.72;4939964;29;20474;-79
2023/05/26 06:40:34;;;;;;;7.22;3.00;;;;;;;19.99;100.00;92961.16;4932175;29;20041;-79
2023/05/26 06:43:00;;;;;;;7.03;3.45;;;;;;;19.83;100.00;92963.69;4922112;29;20032;-79
2023/05/26 06:45:26;;;;;;;9.88;3.33;;;;;;;19.85;100.00;92972.09;4948968;29;20064;-79
2023/05/26 06:47:52;;;;;;;7.00;2.78;;;;;;;19.77;100.00;92970.34;4935617;29;20050;-79
2023/05/26 06:50:17;;;;;;;7.90;3.10;;;;;;;19.92;100.00;92967.00;4921492;29;20040;-79
2023/05/26 06:52:45;;;;;;;10.65;3.15;;;;;;;19.67;100.00;92966.19;4927108;29;20067;-79
2023/05/26 06:55:10;;;;;;;10.80;4.22;;;;;;;19.58;100.00;92968.19;4929142;29;20044;-79
2023/05/26 06:57:36;;;;;;;13.18;3.03;;;;;;;19.85;100.00;92968.69;4930059;29;20035;-79
2023/05/26 07:00:04;;;;;;;11.55;3.40;;;;;;;19.55;100.00;92971.50;4953479;29;20055;-78
2023/05/26 07:02:30;;;;;;;8.30;3.25;;;;;;;19.06;100.00;92972.16;4925838;29;20028;-79
2023/05/26 07:05:13;;;;;;;12.30;3.38;;;;;;;19.17;100.00;92975.19;4929467;29;20521;-79
2023/05/26 07:07:39;;;;;;;6.75;3.20;;;;;;;19.13;100.00;92976.94;4938662;29;20039;-78
2023/05/26 07:10:05;;;;;;;6.65;3.00;;;;;;;19.07;100.00;92980.88;4938047;29;20071;-79
2023/05/26 07:12:31;;;;;;;12.68;3.83;;;;;;;18.98;100.00;92983.63;4938214;29;20039;-78
2023/05/26 07:15:12;;;;;;;8.57;3.50;;;;;;;19.11;100.00;92981.78;4939318;29;20040;-79
2023/05/26 07:17:39;;;;;;;7.55;3.25;;;;;;;19.50;100.00;92977.81;4937833;29;20509;-78
2023/05/26 07:20:06;;;;;;;9.45;3.72;;;;;;;19.38;100.00;92974.34;4954164;29;20043;-78
2023/05/26 07:22:31;;;;;;;9.52;3.67;;;;;;;19.60;100.00;92981.91;4938356;29;20111;-79
2023/05/26 07:25:04;;;;;;;7.70;3.13;;;;;;;19.55;100.00;92984.78;4923091;29;20058;-78
2023/05/26 07:27:37;;;;;;;6.97;3.22;;;;;;;19.29;100.00;92982.41;4937608;29;20047;-78
2023/05/26 07:30:03;;;;;;;8.45;3.45;;;;;;;19.15;100.00;92982.69;4937645;29;20074;-78
2023/05/26 07:32:29;;;;;;;8.25;3.63;;;;;;;19.17;100.00;92988.44;4937233;29;20039;-78
2023/05/26 07:34:55;;;;;;;8.65;3.35;;;;;;;19.12;100.00;92986.78;4936993;29;20094;-78
2023/05/26 07:37:20;;;;;;;7.57;3.50;;;;;;;19.21;100.00;92986.69;4953090;29;20130;-79
2023/05/26 07:39:46;;;;;;;11.40;3.53;;;;;;;19.32;100.00;92982.53;4937300;29;20118;-79
2023/05/26 07:42:11;;;;;;;8.15;3.38;;;;;;;19.61;100.00;92988.00;4919560;29;20040;-78
2023/05/26 07:44:37;;;;;;;7.28;3.28;;;;;;;19.71;100.00;92983.06;4933245;29;20048;-78
2023/05/26 07:47:03;;;;;;;5.40;3.10;;;;;;;19.68;100.00;92983.69;4937388;29;20079;-79
2023/05/26 07:49:29;;;;;;;10.45;3.22;;;;;;;19.93;100.00;92984.53;4938191;29;20109;-78
2023/05/26 07:51:54;;;;;;;8.52;4.07;;;;;;;19.98;100.00;92986.19;4921332;29;20483;-79
2023/05/26 07:54:20;;;;;;;6.40;3.40;;;;;;;19.96;100.00;92977.75;4921647;29;20052;-78
2023/05/26 07:56:45;;;;;;;9.43;3.00;;;;;;;20.11;100.00;92977.09;4937599;29;20103;-78
2023/05/26 07:59:11;;;;;;;8.68;3.50;;;;;;;19.81;100.00;92986.38;4933038;29;20159;-78
2023/05/26 08:01:36;;;;;;;7.63;3.17;;;;;;;19.84;100.00;92989.16;4952086;29;20171;-78
2023/05/26 08:04:02;;;;;;;14.73;3.00;;;;;;;19.61;100.00;92980.81;4932615;29;20044;-78
2023/05/26 08:06:27;;;;;;;5.97;3.13;;;;;;;19.61;100.00;92988.78;4937018;29;20063;-78
2023/05/26 08:08:53;;;;;;;5.85;2.88;;;;;;;19.81;100.00;92989.03;4936895;29;20470;-77
2023/05/26 08:11:20;;;;;;;7.63;3.30;;;;;;;20.04;100.00;92984.84;4937469;29;20513;-79
2023/05/26 08:13:46;;;;;;;6.75;3.53;;;;;;;20.05;100.00;92990.94;4937245;29;20040;-78
2023/05/26 08:16:12;;;;;;;9.90;3.85;;;;;;;20.11;100.00;92990.38;4937019;29;20028;-78
2023/05/26 08:18:37;;;;;;;10.65;4.05;;;;;;;20.13;100.00;92990.81;4928834;29;20071;-78
2023/05/26 08:21:03;;;;;;;9.63;3.65;;;;;;;20.12;100.00;93002.56;4929060;29;20068;-78
2023/05/26 08:23:28;;;;;;;8.98;3.70;;;;;;;19.97;100.00;93000.56;4934248;29;20032;-78
2023/05/26 08:25:54;;;;;;;8.93;3.28;;;;;;;20.02;100.00;93004.88;4936347;29;20095;-79
2023/05/26 08:28:20;;;;;;;6.90;3.47;;;;;;;20.22;100.00;92995.22;4935463;29;20443;-78
2023/05/26 08:30:45;;;;;;;9.65;3.63;;;;;;;20.31;100.00;92998.56;4919967;29;20537;-78
2023/05/26 08:33:11;;;;;;;13.48;3.30;;;;;;;20.22;100.00;92995.22;4935199;29;20043;-78
2023/05/26 08:35:36;;;;;;;11.90;3.45;;;;;;;20.33;100.00;93001.66;4936539;29;20035;-79
2023/05/26 08:38:02;;;;;;;6.32;3.35;;;;;;;20.32;100.00;92994.78;4936416;29;20034;-78
2023/05/26 08:40:28;;;;;;;6.30;3.20;;;;;;;20.47;100.00;92991.47;4935170;29;20050;-78
2023/05/26 08:42:56;;;;;;;11.38;3.13;;;;;;;20.42;100.00;92994.31;4936468;29;20123;-78
2023/05/26 08:45:22;;;;;;;6.20;3.10;;;;;;;20.59;100.00;92988.03;4934048;29;20035;-78
2023/05/26 08:47:48;;;;;;;7.50;3.53;;;;;;;20.62;100.00;92994.56;4933672;29;20039;-78
2023/05/26 08:50:16;;;;;;;6.80;3.00;;;;;;;20.72;100.00;92996.75;4935991;29;20040;-79
2023/05/26 08:52:42;;;;;;;7.30;3.28;;;;;;;20.79;100.00;93000.38;4934496;29;20387;-79
2023/05/26 08:55:08;;;;;;;9.30;3.58;;;;;;;20.80;100.00;92993.16;4917452;29;20672;-78
2023/05/26 08:57:34;;;;;;;8.32;3.40;;;;;;;20.97;100.00;93005.44;4932277;29;20046;-78
2023/05/26 09:00:03;;;;;;;8.32;2.72;;;;;;;20.98;96.56;92998.97;4935966;29;20387;-78
2023/05/26 09:02:28;;;;;;;10.63;2.75;;;;;;;20.89;98.25;92993.81;4925494;29;20112;-78
2023/05/26 09:04:54;;;;;;;7.65;2.80;;;;;;;20.96;97.11;92996.69;4936097;29;20076;-79
2023/05/26 09:07:20;;;;;;;7.95;3.15;;;;;;;20.84;97.37;92996.72;4935721;29;20498;-78
2023/05/26 09:09:46;;;;;;;9.40;3.35;;;;;;;21.12;99.12;92998.59;4922198;29;20038;-78
2023/05/26 09:12:12;;;;;;;7.85;3.30;;;;;;;21.21;97.04;93002.69;4917022;29;20036;-78
2023/05/26 09:14:39;;;;;;;11.57;3.47;;;;;;;21.21;96.71;92994.69;4923558;29;20405;-78
2023/05/26 09:17:05;;;;;;;10.93;3.67;;;;;;;21.27;98.87;92989.88;4932276;29;20430;-78
2023/05/26 09:19:32;;;;;;;9.27;3.47;;;;;;;21.31;98.64;92987.31;4949823;29;20032;-79
2023/05/26 09:22:08;;;;;;;5.47;2.97;;;;;;;21.27;94.21;92995.22;4949904;29;20048;-78
2023/05/26 09:24:48;;;;;;;9.60;3.22;;;;;;;21.23;97.83;92989.00;4944778;28;20087;-78
2023/05/26 09:27:22;;;;;;;10.18;3.08;;;;;;;21.22;98.38;92992.81;4919015;29;20044;-78
2023/05/26 09:30:00;;;;;;;9.57;3.53;;;;;;;21.33;100.00;92991.19;4920340;29;20395;-78
2023/05/26 09:32:28;;;;;;;5.53;3.03;;;;;;;21.31;97.63;92990.75;4915766;29;20050;-78
2023/05/26 09:34:59;;;;;;;8.43;2.95;;;;;;;21.31;97.95;92987.31;4932267;29;20482;-78
2023/05/26 09:37:32;;;;;;;8.55;3.30;;;;;;;21.26;95.71;92990.25;4930324;29;20095;-78
2023/05/26 09:40:11;;;;;;;7.53;3.40;;;;;;;21.28;92.63;92991.44;4931991;29;20103;-78
2023/05/26 09:42:38;;;;;;;9.75;3.10;;;;;;;21.19;86.41;92988.16;4929108;29;20032;-78
2023/05/26 09:45:04;;;;;;;8.07;2.90;;;;;;;21.21;82.67;92993.94;4927305;29;20051;-78
2023/05/26 09:47:35;;;;;;;6.70;2.90;;;;;;;21.18;78.22;92989.25;4925468;29;20044;-78
2023/05/26 09:50:05;;;;;;;8.33;2.77;;;;;;;21.40;79.60;92988.75;4935899;29;20031;-78
2023/05/26 09:52:33;;;;;;;6.60;2.63;;;;;;;21.20;77.31;92989.69;4935621;29;20298;-78
2023/05/26 09:54:59;;;;;;;6.07;2.80;;;;;;;21.23;72.49;92994.34;4934963;29;20053;-78
2023/05/26 09:57:27;;;;;;;9.60;2.85;;;;;;;21.27;73.10;92995.22;4934038;29;20833;-78
2023/05/26 09:59:55;;;;;;;10.95;3.10;;;;;;;21.45;75.87;92989.59;4929680;29;20071;-77
2023/05/26 10:02:23;;;;;;;9.68;3.10;;;;;;;21.72;79.23;92988.78;4934727;29;20032;-78
2023/05/26 10:04:49;;;;;;;8.80;2.85;;;;;;;21.74;74.76;92985.78;4939696;29;20119;-79
2023/05/26 10:07:16;;;;;;;8.77;2.90;;;;;;;21.61;70.77;92982.41;4938165;29;20691;-78
2023/05/26 10:09:44;;;;;;;5.65;2.70;;;;;;;21.66;76.43;92990.16;4952438;29;20036;-78
2023/05/26 10:12:11;;;;;;;6.57;2.88;;;;;;;21.68;71.66;92987.13;4938437;29;20082;-78
2023/05/26 10:14:37;;;;;;;7.88;3.00;;;;;;;21.68;73.77;92987.13;4937759;29;20039;-79
2023/05/26 10:17:03;;;;;;;6.50;2.80;;;;;;;21.60;74.57;92983.53;4939486;29;20043;-79
2023/05/26 10:19:30;;;;;;;5.75;2.53;;;;;;;21.54;73.53;92995.53;4936646;29;20028;-79
2023/05/26 10:22:03;;;;;;;3.80;2.15;;;;;;;21.50;70.38;92992.00;4937598;29;20063;-78
2023/05/26 10:24:37;;;;;;;5.80;2.90;;;;;;;21.67;74.93;92986.38;4940555;29;20425;-78
2023/05/26 10:27:26;;;;;;;4.35;2.28;;;;;;;21.76;70.88;92989.63;4939022;29;20032;-78
2023/05/26 10:30:04;;;;;;;7.15;2.80;;;;;;;21.78;68.64;92981.31;4936698;29;20044;-78
2023/05/26 10:32:51;;;;;;;6.38;2.50;;;;;;;21.89;71.43;92978.91;4936826;29;20047;-78
2023/05/26 10:35:24;;;;;;;5.57;2.42;;;;;;;22.15;69.20;92979.13;4936605;29;20036;-78
2023/05/26 10:38:13;;;;;;;4.90;2.53;;;;;;;22.31;68.70;92967.69;4923661;29;20414;-79
2023/05/26 10:40:44;;;;;;;6.68;2.53;;;;;;;22.32;67.35;92971.91;4922234;29;20091;-79
2023/05/26 10:43:28;;;;;;;6.55;2.80;;;;;;;22.22;65.96;92976.66;4940775;29;20377;-79
2023/05/26 10:46:04;;;;;;;6.75;2.72;;;;;;;22.32;68.14;92964.69;4925225;29;20047;-79
2023/05/26 10:48:38;;;;;;;9.32;2.38;;;;;;;22.33;68.21;92968.13;4923787;29;20040;-79
2023/05/26 10:51:33;;;;;;;4.57;2.47;;;;;;;22.32;68.37;92958.59;4924680;29;20495;-79
2023/05/26 10:54:26;;;;;;;4.95;2.75;;;;;;;22.16;64.59;92961.25;4925712;29;20072;-78
2023/05/26 10:56:54;;;;;;;6.47;2.67;;;;;;;22.37;64.43;92959.06;4919330;29;20099;-78
2023/05/26 10:59:21;;;;;;;6.13;2.45;;;;;;;22.42;64.49;92956.13;4924999;29;20075;-79
2023/05/26 11:01:51;;;;;;;6.47;2.65;;;;;;;22.40;61.26;92957.59;4924346;29;20608;-78
2023/05/26 11:04:17;;;;;;;6.60;2.78;;;;;;;22.57;61.41;92948.44;4924838;29;20443;-78
2023/05/26 11:07:00;;;;;;;5.90;2.45;;;;;;;22.61;59.98;92950.06;4925104;29;20044;-78
2023/05/26 11:09:27;;;;;;;4.55;2.78;;;;;;;22.48;61.42;92953.22;4923313;29;20082;-78
2023/05/26 11:11:57;;;;;;;5.63;2.47;;;;;;;22.58;63.55;92947.31;4933463;29;20023;-79
2023/05/26 11:14:28;;;;;;;5.95;2.58;;;;;;;22.50;60.12;92948.28;4943607;29;20039;-78
2023/05/26 11:17:06;;;;;;;8.73;3.47;;;;;;;22.69;61.78;92940.28;4944098;29;20434;-78
2023/05/26 11:19:34;;;;;;;7.50;2.80;;;;;;;22.69;60.24;92944.88;4943528;29;20039;-78
2023/05/26 11:22:03;;;;;;;6.53;3.00;;;;;;;22.74;58.76;92944.56;4941337;29;20044;-79
2023/05/26 11:24:30;;;;;;;4.30;2.33;;;;;;;22.67;55.98;92945.19;4942546;29;20043;-79
2023/05/26 11:26:58;;;;;;;6.47;2.75;;;;;;;22.71;59.69;92935.38;4943982;29;20035;-79
2023/05/26 11:29:24;;;;;;;5.45;2.47;;;;;;;22.64;59.29;92930.66;4942664;29;20047;-78
2023/05/26 11:31:51;;;;;;;5.65;2.40;;;;;;;22.68;60.32;92935.31;4941789;29;20042;-78